createdAt,value
2019-05-10T00:01:12.318Z,12.75
2019-05-10T00:03:57.090Z,12.75
2019-05-10T00:06:41.399Z,12.75
2019-05-10T00:09:07.354Z,12.81
2019-05-10T00:11:44.123Z,12.75
2019-05-10T00:14:17.797Z,12.63
2019-05-10T00:16:44.831Z,12.69
2019-05-10T00:19:10.666Z,12.75
2019-05-10T00:21:36.509Z,12.63
2019-05-10T00:24:02.480Z,12.69
2019-05-10T00:26:30.352Z,12.63
2019-05-10T00:28:56.319Z,12.69
2019-05-10T00:31:22.293Z,12.69
2019-05-10T00:33:48.203Z,12.63
2019-05-10T00:36:14.153Z,12.69
2019-05-10T00:38:40.113Z,12.69
2019-05-10T00:41:05.978Z,12.69
2019-05-10T00:43:31.971Z,12.94
2019-05-10T00:45:57.959Z,12.81
2019-05-10T00:48:23.850Z,12.69
2019-05-10T00:50:49.819Z,12.81
2019-05-10T00:53:15.787Z,12.69
2019-05-10T00:55:41.842Z,12.94
2019-05-10T00:58:07.775Z,12.75
2019-05-10T01:00:33.896Z,12.69
2019-05-10T01:02:59.712Z,12.63
2019-05-10T01:05:25.615Z,12.69
2019-05-10T01:07:51.463Z,12.69
2019-05-10T01:10:17.302Z,12.81
2019-05-10T01:12:43.131Z,12.81
2019-05-10T01:15:09.511Z,12.75
2019-05-10T01:17:35.334Z,12.69
2019-05-10T01:20:01.160Z,12.69
2019-05-10T01:22:27.030Z,12.81
2019-05-10T01:24:52.883Z,12.75
2019-05-10T01:27:18.755Z,12.81
2019-05-10T01:29:44.719Z,12.88
2019-05-10T01:32:10.568Z,12.88
2019-05-10T01:34:36.408Z,12.81
2019-05-10T01:37:02.242Z,12.81
2019-05-10T01:39:28.118Z,12.75
2019-05-10T01:41:53.952Z,12.81
2019-05-10T01:44:20.114Z,12.88
2019-05-10T01:46:45.974Z,12.88
2019-05-10T01:49:11.825Z,12.88
2019-05-10T01:51:37.676Z,12.88
2019-05-10T01:54:03.638Z,12.88
2019-05-10T01:56:29.522Z,12.88
2019-05-10T01:58:55.371Z,12.88
2019-05-10T02:01:21.225Z,12.88
2019-05-10T02:03:47.218Z,12.94
2019-05-10T02:06:13.152Z,13.00
2019-05-10T02:08:39.036Z,12.94
2019-05-10T02:11:05.044Z,12.88
2019-05-10T02:13:30.888Z,12.94
2019-05-10T02:15:56.741Z,12.88
2019-05-10T02:18:22.572Z,12.94
2019-05-10T02:20:48.451Z,13.00
2019-05-10T02:23:14.294Z,12.88
2019-05-10T02:25:40.144Z,12.94
2019-05-10T02:28:06.003Z,13.00
2019-05-10T02:30:32.125Z,12.88
2019-05-10T02:32:58.041Z,12.94
2019-05-10T02:35:23.916Z,12.94
2019-05-10T02:37:49.795Z,12.88
2019-05-10T02:40:16.360Z,12.94
2019-05-10T02:42:42.982Z,12.94
2019-05-10T02:45:10.749Z,12.88
2019-05-10T02:47:36.781Z,12.94
2019-05-10T02:50:06.719Z,12.94
2019-05-10T02:52:32.553Z,12.94
2019-05-10T02:54:58.505Z,12.94
2019-05-10T02:57:24.340Z,13.00
2019-05-10T02:59:50.298Z,12.94
2019-05-10T03:02:16.454Z,13.00
2019-05-10T03:04:44.276Z,13.13
2019-05-10T03:07:10.149Z,13.00
2019-05-10T03:09:36.209Z,13.13
2019-05-10T03:12:19.768Z,12.94
2019-05-10T03:14:48.828Z,12.88
2019-05-10T03:17:16.082Z,12.88
2019-05-10T03:19:42.120Z,12.88
2019-05-10T03:22:08.153Z,12.75
2019-05-10T03:24:34.095Z,12.81
2019-05-10T03:27:00.183Z,12.75
2019-05-10T03:29:26.020Z,12.88
2019-05-10T03:31:51.995Z,12.75
2019-05-10T03:34:17.936Z,12.69
2019-05-10T03:36:43.802Z,12.81
2019-05-10T03:39:09.658Z,12.69
2019-05-10T03:41:35.515Z,12.75
2019-05-10T03:44:01.475Z,12.75
2019-05-10T03:46:27.415Z,12.81
2019-05-10T03:48:53.397Z,12.81
2019-05-10T03:51:19.314Z,12.88
2019-05-10T03:53:45.150Z,12.81
2019-05-10T03:56:11.031Z,12.88
2019-05-10T03:58:36.985Z,12.94
2019-05-10T04:01:02.840Z,12.94
2019-05-10T04:03:28.762Z,12.94
2019-05-10T04:05:54.591Z,12.94
2019-05-10T04:08:20.431Z,12.94
2019-05-10T04:10:46.752Z,12.94
2019-05-10T04:13:12.684Z,12.94
2019-05-10T04:15:38.616Z,12.88
2019-05-10T04:18:05.308Z,12.88
2019-05-10T04:20:31.290Z,13.06
2019-05-10T04:22:57.255Z,13.00
2019-05-10T04:25:23.126Z,13.06
2019-05-10T04:27:49.083Z,13.00
2019-05-10T04:30:15.775Z,13.00
2019-05-10T04:32:41.612Z,12.94
2019-05-10T04:35:07.594Z,13.06
2019-05-10T04:37:33.475Z,13.06
2019-05-10T04:39:59.311Z,12.94
2019-05-10T04:42:25.163Z,13.06
2019-05-10T04:44:53.393Z,13.00
2019-05-10T04:47:18.712Z,13.13
2019-05-10T04:49:44.572Z,12.94
2019-05-10T04:52:10.507Z,13.06
2019-05-10T04:54:36.427Z,13.06
2019-05-10T04:57:02.311Z,13.00
2019-05-10T04:59:28.262Z,13.06
2019-05-10T05:01:54.208Z,13.06
2019-05-10T05:04:20.052Z,13.19
2019-05-10T05:06:46.015Z,13.06
2019-05-10T05:09:11.973Z,13.06
2019-05-10T05:11:37.853Z,13.25
2019-05-10T05:14:03.700Z,13.19
2019-05-10T05:16:29.540Z,13.25
2019-05-10T05:18:55.503Z,13.44
2019-05-10T05:21:21.349Z,13.31
2019-05-10T05:23:47.213Z,13.31
2019-05-10T05:26:13.189Z,13.31
2019-05-10T05:28:39.115Z,13.38
2019-05-10T05:31:04.956Z,13.25
2019-05-10T05:33:30.913Z,13.31
2019-05-10T05:35:57.170Z,13.38
2019-05-10T05:38:23.132Z,13.56
2019-05-10T05:40:49.097Z,13.50
2019-05-10T05:43:14.942Z,13.50
2019-05-10T05:45:40.776Z,13.56
2019-05-10T05:48:06.640Z,13.50
2019-05-10T05:50:32.478Z,13.50
2019-05-10T05:52:58.325Z,13.56
2019-05-10T05:55:24.189Z,13.62
2019-05-10T05:57:50.065Z,13.69
2019-05-10T06:00:16.139Z,13.69
2019-05-10T06:02:44.926Z,13.81
2019-05-10T06:05:09.744Z,13.88
2019-05-10T06:07:38.166Z,14.06
2019-05-10T06:10:10.434Z,14.25
2019-05-10T06:12:32.412Z,14.38
2019-05-10T06:14:58.281Z,14.38
2019-05-10T06:17:29.503Z,14.25
2019-05-10T06:19:52.158Z,14.25
2019-05-10T06:22:18.083Z,14.25
2019-05-10T06:24:46.617Z,14.25
2019-05-10T06:27:11.688Z,14.38
2019-05-10T06:29:37.671Z,14.44
2019-05-10T06:32:03.580Z,14.38
2019-05-10T06:34:31.825Z,14.38
2019-05-10T06:36:57.206Z,14.38
2019-05-10T06:39:23.152Z,14.31
2019-05-10T06:41:50.034Z,14.44
2019-05-10T06:44:16.839Z,14.31
2019-05-10T06:46:42.660Z,14.31
2019-05-10T06:49:10.925Z,14.31
2019-05-10T06:51:42.780Z,14.31
2019-05-10T06:54:05.864Z,14.38
2019-05-10T06:56:31.722Z,14.50
2019-05-10T06:59:11.234Z,14.63
2019-05-10T07:01:25.535Z,14.50
2019-05-10T07:03:52.432Z,14.44
2019-05-10T07:06:18.298Z,14.44
2019-05-10T07:08:46.030Z,14.56
2019-05-10T07:11:14.539Z,14.56
2019-05-10T07:13:47.142Z,14.69
2019-05-10T07:16:08.129Z,14.69
2019-05-10T07:18:34.119Z,14.75
2019-05-10T07:21:00.788Z,14.87
2019-05-10T07:23:30.105Z,14.81
2019-05-10T07:25:55.619Z,14.94
2019-05-10T07:28:21.472Z,15.00
2019-05-10T07:30:47.325Z,15.06
2019-05-10T07:33:13.251Z,15.19
2019-05-10T07:35:39.112Z,15.06
2019-05-10T07:38:05.027Z,15.13
2019-05-10T07:40:30.913Z,15.13
2019-05-10T07:42:56.830Z,15.19
2019-05-10T07:45:25.652Z,15.13
2019-05-10T07:47:50.410Z,15.19
2019-05-10T07:50:17.050Z,15.19
2019-05-10T07:52:45.441Z,15.38
2019-05-10T07:55:10.900Z,15.44
2019-05-10T07:57:36.850Z,15.38
2019-05-10T08:00:06.178Z,15.38
2019-05-10T08:02:33.659Z,15.25
2019-05-10T08:04:59.502Z,15.31
2019-05-10T08:07:25.449Z,15.25
2019-05-10T08:09:51.639Z,15.25
2019-05-10T08:12:19.498Z,15.31
2019-05-10T08:14:51.861Z,15.44
2019-05-10T08:17:13.096Z,15.75
2019-05-10T08:19:39.059Z,15.75
2019-05-10T08:22:05.018Z,15.94
2019-05-10T08:24:35.165Z,16.00
2019-05-10T08:27:08.082Z,16.06
2019-05-10T08:29:27.503Z,16.00
2019-05-10T08:31:55.957Z,15.88
2019-05-10T08:34:22.754Z,15.75
2019-05-10T08:36:48.863Z,15.88
2019-05-10T08:39:16.739Z,16.25
2019-05-10T08:41:43.984Z,16.00
2019-05-10T08:44:19.080Z,15.94
2019-05-10T08:46:41.358Z,16.00
2019-05-10T08:49:05.930Z,16.19
2019-05-10T08:51:32.563Z,16.25
2019-05-10T08:54:01.608Z,16.31
2019-05-10T08:56:27.466Z,16.31
2019-05-10T08:58:53.861Z,16.19
2019-05-10T09:01:27.640Z,16.31
2019-05-10T09:03:55.643Z,16.50
2019-05-10T09:06:16.945Z,16.62
2019-05-10T09:08:44.422Z,16.62
2019-05-10T09:11:10.494Z,16.75
2019-05-10T09:13:40.858Z,17.00
2019-05-10T09:16:04.485Z,17.00
2019-05-10T09:18:30.358Z,17.19
2019-05-10T09:21:00.315Z,17.19
2019-05-10T09:23:23.994Z,17.25
2019-05-10T09:25:51.909Z,17.06
2019-05-10T09:28:17.761Z,16.87
2019-05-10T09:30:56.327Z,16.87
2019-05-10T09:33:14.358Z,17.06
2019-05-10T09:35:46.939Z,17.12
2019-05-10T09:38:07.420Z,17.44
2019-05-10T09:40:33.302Z,17.19
2019-05-10T09:43:03.984Z,17.37
2019-05-10T09:45:27.122Z,17.37
2019-05-10T09:47:53.122Z,17.37
2019-05-10T09:50:19.152Z,17.19
2019-05-10T09:52:45.067Z,17.25
2019-05-10T09:55:14.891Z,17.06
2019-05-10T09:57:39.581Z,17.00
2019-05-10T10:00:07.390Z,16.94
2019-05-10T10:02:34.043Z,16.81
2019-05-10T10:05:00.011Z,16.87
2019-05-10T10:07:29.345Z,16.62
2019-05-10T10:09:53.762Z,16.50
2019-05-10T10:12:28.949Z,16.31
2019-05-10T10:14:55.032Z,16.25
2019-05-10T10:17:21.027Z,16.19
2019-05-10T10:19:48.074Z,16.12
2019-05-10T10:22:14.116Z,16.12
2019-05-10T10:24:41.062Z,16.00
2019-05-10T10:27:07.515Z,16.00
2019-05-10T10:29:35.955Z,15.94
2019-05-10T10:32:01.309Z,15.94
2019-05-10T10:34:27.344Z,15.94
2019-05-10T10:36:53.323Z,15.94
2019-05-10T10:39:22.814Z,16.12
2019-05-10T10:41:48.505Z,16.37
2019-05-10T10:44:14.971Z,16.56
2019-05-10T10:46:40.872Z,16.50
2019-05-10T10:49:10.428Z,16.87
2019-05-10T10:51:37.939Z,17.12
2019-05-10T10:54:07.250Z,17.25
2019-05-10T10:56:32.760Z,17.37
2019-05-10T10:58:58.653Z,17.50
2019-05-10T11:01:25.535Z,17.44
2019-05-10T11:03:52.353Z,17.25
2019-05-10T11:06:18.202Z,17.44
2019-05-10T11:08:44.295Z,17.31
2019-05-10T11:11:10.670Z,17.00
2019-05-10T11:13:43.943Z,16.94
2019-05-10T11:16:09.977Z,16.94
2019-05-10T11:18:32.121Z,16.81
2019-05-10T11:20:58.048Z,16.94
2019-05-10T11:23:33.213Z,16.81
2019-05-10T11:25:56.495Z,16.69
2019-05-10T11:28:20.874Z,16.75
2019-05-10T11:30:46.709Z,16.62
2019-05-10T11:33:25.810Z,16.56
2019-05-10T11:35:41.709Z,16.56
2019-05-10T11:38:14.533Z,16.62
2019-05-10T11:40:35.486Z,16.56
2019-05-10T11:43:01.652Z,16.69
2019-05-10T11:45:32.298Z,16.75
2019-05-10T11:47:59.176Z,16.56
2019-05-10T11:50:31.803Z,16.69
2019-05-10T11:52:53.584Z,16.69
2019-05-10T11:55:21.595Z,16.81
2019-05-10T11:58:00.084Z,16.94
2019-05-10T12:00:28.070Z,16.94
2019-05-10T12:03:01.716Z,17.19
2019-05-10T12:05:17.642Z,17.37
2019-05-10T12:07:43.405Z,17.37
2019-05-10T12:10:20.042Z,17.19
2019-05-10T12:12:53.885Z,17.12
2019-05-10T12:15:05.773Z,17.06
2019-05-10T12:17:31.712Z,17.25
2019-05-10T12:19:57.695Z,17.31
2019-05-10T12:22:32.221Z,17.44
2019-05-10T12:25:18.716Z,17.50
2019-05-10T12:27:28.759Z,17.37
2019-05-10T12:29:55.576Z,17.44
2019-05-10T12:32:21.161Z,17.37
2019-05-10T12:34:51.824Z,17.31
2019-05-10T12:37:20.220Z,17.19
2019-05-10T12:39:46.263Z,16.94
2019-05-10T12:42:14.376Z,16.75
2019-05-10T12:44:44.002Z,16.94
2019-05-10T12:47:11.395Z,16.62
2019-05-10T12:49:37.720Z,16.37
2019-05-10T12:52:03.689Z,16.37
2019-05-10T12:54:31.631Z,16.37
2019-05-10T12:56:58.659Z,16.25
2019-05-10T12:59:24.631Z,16.25
2019-05-10T13:01:50.475Z,16.12
2019-05-10T13:04:16.966Z,15.94
2019-05-10T13:06:43.428Z,15.81
2019-05-10T13:09:09.422Z,15.69
2019-05-10T13:12:04.027Z,15.75
2019-05-10T13:14:29.248Z,15.56
2019-05-10T13:16:54.996Z,15.81
2019-05-10T13:19:21.722Z,15.69
2019-05-10T13:21:47.680Z,15.63
2019-05-10T13:24:13.507Z,15.69
2019-05-10T13:26:39.720Z,15.63
2019-05-10T13:29:07.906Z,15.63
2019-05-10T13:31:42.053Z,15.56
2019-05-10T13:34:01.080Z,15.56
2019-05-10T13:36:30.638Z,15.56
2019-05-10T13:38:54.796Z,15.69
2019-05-10T13:41:24.043Z,15.56
2019-05-10T13:43:48.444Z,15.63
2019-05-10T13:46:14.439Z,15.75
2019-05-10T13:48:40.276Z,15.81
2019-05-10T13:51:06.549Z,15.75
2019-05-10T13:53:32.398Z,15.88
2019-05-10T13:55:58.248Z,15.88
2019-05-10T13:58:24.159Z,15.94
2019-05-10T14:00:50.116Z,15.88
2019-05-10T14:03:15.958Z,16.00
2019-05-10T14:05:41.919Z,15.94
2019-05-10T14:08:09.257Z,15.94
2019-05-10T14:10:35.145Z,16.00
2019-05-10T14:13:02.354Z,16.06
2019-05-10T14:15:28.825Z,16.19
2019-05-10T14:17:54.648Z,16.25
2019-05-10T14:20:25.095Z,16.37
2019-05-10T14:22:55.449Z,16.44
2019-05-10T14:25:16.083Z,16.44
2019-05-10T14:27:41.980Z,16.44
2019-05-10T14:30:13.435Z,16.44
2019-05-10T14:32:35.899Z,16.56
2019-05-10T14:35:03.963Z,16.56
2019-05-10T14:37:29.896Z,16.62
2019-05-10T14:39:55.834Z,16.75
2019-05-10T14:42:23.929Z,16.81
2019-05-10T14:44:49.469Z,16.81
2019-05-10T14:47:15.321Z,16.94
2019-05-10T14:49:47.032Z,16.94
2019-05-10T14:52:08.975Z,16.87
2019-05-10T14:54:43.126Z,16.94
2019-05-10T14:57:04.893Z,17.12
2019-05-10T14:59:30.875Z,17.06
2019-05-10T15:01:56.945Z,16.87
2019-05-10T15:04:43.747Z,16.94
2019-05-10T15:06:50.714Z,17.12
2019-05-10T15:09:21.761Z,17.25
2019-05-10T15:11:44.313Z,17.25
2019-05-10T15:14:10.192Z,17.31
2019-05-10T15:16:36.076Z,17.19
2019-05-10T15:19:02.076Z,17.12
2019-05-10T15:21:28.034Z,17.19
2019-05-10T15:23:55.368Z,17.19
2019-05-10T15:26:22.538Z,17.12
2019-05-10T15:28:49.851Z,17.12
2019-05-10T15:31:17.803Z,17.12
2019-05-10T15:33:43.774Z,16.94
2019-05-10T15:36:09.749Z,16.62
2019-05-10T15:38:40.503Z,16.50
2019-05-10T15:41:06.449Z,16.44
2019-05-10T15:43:32.419Z,16.31
2019-05-10T15:45:58.343Z,16.19
2019-05-10T15:48:24.337Z,16.37
2019-05-10T15:50:50.354Z,16.19
2019-05-10T15:53:19.322Z,15.94
2019-05-10T15:55:44.563Z,16.12
2019-05-10T15:58:10.536Z,15.94
2019-05-10T16:00:39.110Z,16.00
2019-05-10T16:03:04.208Z,15.75
2019-05-10T16:05:42.970Z,15.88
2019-05-10T16:07:57.924Z,15.88
2019-05-10T16:10:28.454Z,15.81
2019-05-10T16:12:51.588Z,15.81
2019-05-10T16:15:20.170Z,15.69
2019-05-10T16:17:45.449Z,15.50
2019-05-10T16:20:11.508Z,15.56
2019-05-10T16:22:39.504Z,15.50
2019-05-10T16:25:05.741Z,15.44
2019-05-10T16:27:33.929Z,15.44
2019-05-10T16:29:59.398Z,15.38
2019-05-10T16:32:29.336Z,15.38
2019-05-10T16:34:53.491Z,15.25
2019-05-10T16:37:19.372Z,15.44
2019-05-10T16:39:47.334Z,15.31
2019-05-10T16:42:13.242Z,15.44
2019-05-10T16:44:39.189Z,15.44
2019-05-10T16:47:05.060Z,15.25
2019-05-10T16:49:33.836Z,15.25
2019-05-10T16:51:59.877Z,15.19
2019-05-10T16:54:27.345Z,15.38
2019-05-10T16:56:59.451Z,15.31
2019-05-10T17:09:09.474Z,15.44
2019-05-10T17:11:54.645Z,15.38
2019-05-10T17:14:38.210Z,15.06
2019-05-10T17:17:04.131Z,15.25
2019-05-10T17:19:36.592Z,15.00
2019-05-10T17:22:06.549Z,14.87
2019-05-10T17:24:35.672Z,14.81
2019-05-10T17:27:01.697Z,14.75
2019-05-10T17:32:46.974Z,14.75
2019-05-10T17:35:14.179Z,14.56
2019-05-10T17:38:07.693Z,14.50
2019-05-10T17:40:29.626Z,14.50
2019-05-10T17:42:55.530Z,14.44
2019-05-10T17:45:21.472Z,14.38
2019-05-10T17:47:47.447Z,14.50
2019-05-10T17:50:13.365Z,14.56
2019-05-10T17:52:39.228Z,14.50
2019-05-10T17:55:10.866Z,14.38
2019-05-10T17:57:35.818Z,14.38
2019-05-10T18:00:08.746Z,14.38
2019-05-10T18:02:34.607Z,14.44
2019-05-10T18:05:06.344Z,14.31
2019-05-10T18:07:28.296Z,14.38
2019-05-10T18:09:54.135Z,14.19
2019-05-10T18:12:21.041Z,14.25
2019-05-10T18:14:50.139Z,14.31
2019-05-10T18:17:15.555Z,14.25
2019-05-10T18:19:41.387Z,14.13
2019-05-10T18:22:08.967Z,14.25
2019-05-10T18:24:36.414Z,14.06
2019-05-10T18:27:02.565Z,14.19
2019-05-10T18:29:28.414Z,14.13
2019-05-10T18:31:58.057Z,13.94
2019-05-10T18:34:26.593Z,13.88
2019-05-10T18:36:51.608Z,13.81
2019-05-10T18:39:17.798Z,14.00
2019-05-10T18:41:46.388Z,13.81
2019-05-10T18:44:14.197Z,13.75
2019-05-10T18:46:39.293Z,13.81
2019-05-10T18:49:05.156Z,13.62
2019-05-10T18:51:34.389Z,13.62
2019-05-10T18:53:58.771Z,13.69
2019-05-10T18:56:25.187Z,13.75
2019-05-10T18:58:52.351Z,13.56
2019-05-10T19:01:18.177Z,13.50
2019-05-10T19:03:44.020Z,13.56
2019-05-10T19:06:13.066Z,13.50
2019-05-10T19:08:37.888Z,13.38
2019-05-10T19:11:04.402Z,13.56
2019-05-10T19:13:33.635Z,13.50
2019-05-10T19:15:58.823Z,13.38
2019-05-10T19:18:26.096Z,13.44
2019-05-10T19:20:55.214Z,13.31
2019-05-10T19:23:21.634Z,13.38
2019-05-10T19:25:51.635Z,13.38
2019-05-10T19:28:15.399Z,13.31
2019-05-10T19:30:41.252Z,13.19
2019-05-10T19:33:07.108Z,13.13
2019-05-10T19:35:35.673Z,13.19
2019-05-10T19:38:00.768Z,13.31
2019-05-10T19:40:26.667Z,13.19
2019-05-10T19:42:52.624Z,13.06
2019-05-10T19:45:21.084Z,13.31
2019-05-10T19:47:49.758Z,13.25
2019-05-10T19:50:13.972Z,13.19
2019-05-10T19:52:39.806Z,13.19
2019-05-10T19:55:05.768Z,13.38
2019-05-10T19:57:35.483Z,13.25
2019-05-10T20:00:01.654Z,13.19
2019-05-10T20:02:27.618Z,13.00
2019-05-10T20:04:53.534Z,13.13
2019-05-10T20:07:19.363Z,13.00
2019-05-10T20:09:48.302Z,13.00
2019-05-10T20:12:14.111Z,12.94
2019-05-10T20:14:39.970Z,13.00
2019-05-10T20:17:05.809Z,13.19
2019-05-10T20:19:31.656Z,13.06
2019-05-10T20:21:57.491Z,12.94
2019-05-10T20:24:23.573Z,12.81
2019-05-10T20:26:49.789Z,13.00
2019-05-10T20:29:15.737Z,12.94
2019-05-10T20:31:41.704Z,12.75
2019-05-10T20:34:07.652Z,12.69
2019-05-10T20:36:33.609Z,12.81
2019-05-10T20:39:00.960Z,12.75
2019-05-10T20:41:27.002Z,12.88
2019-05-10T20:43:52.849Z,12.88
2019-05-10T20:46:18.674Z,12.81
2019-05-10T20:48:44.552Z,12.88
2019-05-10T20:51:10.401Z,12.88
2019-05-10T20:53:36.262Z,12.69
2019-05-10T20:56:02.188Z,12.69
2019-05-10T20:58:28.966Z,12.56
2019-05-10T21:00:54.856Z,12.56
2019-05-10T21:03:20.699Z,12.63
2019-05-10T21:05:46.535Z,12.75
2019-05-10T21:08:17.091Z,12.69
2019-05-10T21:10:40.219Z,12.69
2019-05-10T21:13:06.059Z,12.75
2019-05-10T21:15:32.004Z,12.69
2019-05-10T21:17:57.924Z,12.75
2019-05-10T21:20:23.844Z,12.50
2019-05-10T21:22:49.684Z,12.56
2019-05-10T21:25:15.544Z,12.56
2019-05-10T21:27:41.479Z,12.50
2019-05-10T21:30:07.630Z,12.44
2019-05-10T21:32:33.452Z,12.37
2019-05-10T21:34:59.298Z,12.37
2019-05-10T21:37:25.139Z,12.37
2019-05-10T21:39:50.974Z,12.63
2019-05-10T21:42:16.824Z,12.44
2019-05-10T21:44:42.659Z,12.37
2019-05-10T21:47:08.506Z,12.13
2019-05-10T21:49:34.356Z,12.31
2019-05-10T21:52:00.495Z,12.37
2019-05-10T21:54:26.326Z,12.13
2019-05-10T21:56:52.177Z,12.13
2019-05-10T21:59:17.994Z,12.06
2019-05-10T22:01:43.967Z,11.94
2019-05-10T22:04:09.791Z,12.06
2019-05-10T22:06:35.639Z,12.19
2019-05-10T22:09:01.471Z,12.00
2019-05-10T22:11:27.339Z,12.06
2019-05-10T22:13:53.195Z,12.06
2019-05-10T22:16:19.052Z,12.00
2019-05-10T22:18:44.869Z,11.88
2019-05-10T22:21:10.822Z,11.88
2019-05-10T22:23:36.743Z,11.88
2019-05-10T22:26:02.701Z,12.06
2019-05-10T22:28:29.790Z,11.94
2019-05-10T22:30:55.638Z,11.88
2019-05-10T22:33:21.475Z,11.81
2019-05-10T22:35:47.321Z,11.94
2019-05-10T22:38:13.225Z,11.81
2019-05-10T22:40:39.399Z,11.88
2019-05-10T22:43:05.757Z,11.75
2019-05-10T22:45:31.611Z,11.75
2019-05-10T22:47:57.493Z,11.81
2019-05-10T22:50:23.332Z,11.56
2019-05-10T22:52:49.161Z,11.56
2019-05-10T22:55:15.003Z,11.44
2019-05-10T22:57:40.868Z,11.56
2019-05-10T23:00:08.502Z,11.56
2019-05-10T23:02:34.357Z,11.75
2019-05-10T23:05:00.206Z,11.75
2019-05-10T23:07:26.072Z,11.56
2019-05-10T23:09:51.923Z,11.38
2019-05-10T23:12:17.781Z,11.63
2019-05-10T23:14:43.612Z,11.50
2019-05-10T23:17:09.455Z,11.38
2019-05-10T23:19:37.549Z,11.44
2019-05-10T23:22:03.474Z,11.44
2019-05-10T23:24:36.547Z,11.50
2019-05-10T23:27:03.018Z,11.56
2019-05-10T23:29:28.879Z,11.56
2019-05-10T23:31:54.728Z,11.63
2019-05-10T23:34:20.584Z,11.69
2019-05-10T23:36:46.416Z,11.56
2019-05-10T23:39:12.275Z,11.31
2019-05-10T23:41:38.403Z,11.50
2019-05-10T23:44:04.351Z,11.38
2019-05-10T23:46:30.195Z,11.56
2019-05-10T23:48:56.049Z,11.69
2019-05-10T23:51:21.876Z,11.63
2019-05-10T23:53:47.707Z,11.44
2019-05-10T23:56:13.547Z,11.63
2019-05-10T23:58:39.416Z,11.50
